createdAt,value
2023-03-06T00:02:18.930Z,9.35
2023-03-06T00:04:46.903Z,11.18
2023-03-06T00:07:19.634Z,9.75
2023-03-06T00:09:57.561Z,10.52
2023-03-06T00:12:24.850Z,10.23
2023-03-06T00:15:05.837Z,11.20
2023-03-06T00:17:32.900Z,11.70
2023-03-06T00:20:07.463Z,9.75
2023-03-06T00:22:39.944Z,10.07
2023-03-06T00:25:10.158Z,9.65
2023-03-06T00:27:39.119Z,9.95
2023-03-06T00:30:20.675Z,10.45
2023-03-06T00:32:56.506Z,10.35
2023-03-06T00:35:24.241Z,9.70
2023-03-06T00:37:54.010Z,10.32
2023-03-06T00:40:49.218Z,10.88
2023-03-06T00:43:20.180Z,10.77
2023-03-06T00:45:57.713Z,10.40
2023-03-06T00:48:24.385Z,9.55
2023-03-06T00:50:50.956Z,11.82
2023-03-06T00:53:26.545Z,10.70
2023-03-06T00:55:53.377Z,9.88
2023-03-06T00:58:26.107Z,10.07
2023-03-06T01:01:02.730Z,10.68
2023-03-06T01:03:32.477Z,10.30
2023-03-06T01:06:02.437Z,9.43
2023-03-06T01:08:32.820Z,9.82
2023-03-06T01:10:59.991Z,10.85
2023-03-06T01:13:26.824Z,10.05
2023-03-06T01:16:09.842Z,10.75
2023-03-06T01:18:47.763Z,9.98
2023-03-06T01:21:18.976Z,11.27
2023-03-06T01:23:45.697Z,10.98
2023-03-06T01:26:12.478Z,10.93
2023-03-06T01:28:42.281Z,10.70
2023-03-06T01:31:20.764Z,9.90
2023-03-06T01:33:49.638Z,10.57
2023-03-06T01:36:22.050Z,11.15
2023-03-06T01:38:49.905Z,10.80
2023-03-06T01:41:21.859Z,9.85
2023-03-06T01:43:50.745Z,10.70
2023-03-06T01:46:30.344Z,12.00
2023-03-06T01:49:18.316Z,10.82
2023-03-06T01:52:00.646Z,11.13
2023-03-06T01:54:35.606Z,10.50
2023-03-06T01:57:38.552Z,10.43
2023-03-06T02:00:21.618Z,9.68
2023-03-06T02:03:26.911Z,10.73
2023-03-06T02:06:01.921Z,10.40
2023-03-06T02:08:38.246Z,9.85
2023-03-06T02:11:08.033Z,10.18
2023-03-06T02:13:41.814Z,11.18
2023-03-06T02:16:19.052Z,11.52
2023-03-06T02:18:57.266Z,11.20
2023-03-06T02:21:46.201Z,10.82
2023-03-06T02:24:42.652Z,11.63
2023-03-06T02:27:14.356Z,10.95
2023-03-06T02:29:46.439Z,11.75
2023-03-06T02:34:42.546Z,10.95
2023-03-06T02:37:12.214Z,11.48
2023-03-06T02:39:51.196Z,11.05
2023-03-06T02:42:39.927Z,10.65
2023-03-06T02:45:16.910Z,9.70
2023-03-06T02:47:50.203Z,11.70
2023-03-06T02:50:20.417Z,11.77
2023-03-06T02:52:50.072Z,10.98
2023-03-06T02:55:16.996Z,10.70
2023-03-06T02:57:46.763Z,11.85
2023-03-06T03:00:19.561Z,11.10
2023-03-06T03:02:46.521Z,9.32
2023-03-06T03:05:15.754Z,10.23
2023-03-06T03:07:54.340Z,11.15
2023-03-06T03:10:32.422Z,11.80
2023-03-06T03:12:59.293Z,10.55
2023-03-06T03:15:30.195Z,10.90
2023-03-06T03:17:56.770Z,10.48
2023-03-06T03:20:24.941Z,10.85
2023-03-06T03:22:54.087Z,11.63
2023-03-06T03:25:33.476Z,11.65
2023-03-06T03:28:03.868Z,11.80
2023-03-06T03:30:38.180Z,11.45
2023-03-06T03:33:13.736Z,9.80
2023-03-06T03:35:44.148Z,11.60
2023-03-06T03:38:11.778Z,11.05
2023-03-06T03:40:53.574Z,11.30
2023-03-06T03:43:34.021Z,11.70
2023-03-06T03:46:01.308Z,11.40
2023-03-06T03:48:32.165Z,12.05
2023-03-06T03:51:32.804Z,11.02
2023-03-06T03:54:00.670Z,10.53
2023-03-06T03:56:27.632Z,11.18
2023-03-06T03:59:02.575Z,11.35
2023-03-06T04:01:32.393Z,11.63
2023-03-06T04:03:59.006Z,11.70
2023-03-06T04:06:25.684Z,11.05
2023-03-06T04:09:01.389Z,9.70
2023-03-06T04:11:31.055Z,11.25
2023-03-06T04:14:02.528Z,10.43
2023-03-06T04:19:05.465Z,11.50
2023-03-06T04:21:34.269Z,11.40
2023-03-06T04:24:13.574Z,10.20
2023-03-06T04:26:40.214Z,10.48
2023-03-06T04:29:06.812Z,12.52
2023-03-06T04:31:33.868Z,11.43
2023-03-06T04:34:00.472Z,11.80
2023-03-06T04:36:45.041Z,10.88
2023-03-06T04:39:19.317Z,11.60
2023-03-06T04:41:54.797Z,10.20
2023-03-06T04:44:21.489Z,12.77
2023-03-06T04:46:51.848Z,11.90
2023-03-06T04:49:18.888Z,12.13
2023-03-06T04:51:49.470Z,12.00
2023-03-06T04:54:18.008Z,11.38
2023-03-06T04:56:58.177Z,9.63
2023-03-06T04:59:33.024Z,12.13
2023-03-06T05:02:02.270Z,10.80
2023-03-06T05:04:33.498Z,10.20
2023-03-06T05:07:00.126Z,11.90
2023-03-06T05:09:26.905Z,11.65
2023-03-06T05:11:54.433Z,11.27
2023-03-06T05:14:22.317Z,10.70
2023-03-06T05:16:57.239Z,12.15
2023-03-06T05:19:36.596Z,13.13
2023-03-06T05:22:05.357Z,12.02
2023-03-06T05:24:45.606Z,12.90
2023-03-06T05:27:14.598Z,12.70
2023-03-06T05:29:50.091Z,13.00
2023-03-06T05:32:17.242Z,13.88
2023-03-06T05:35:00.444Z,11.98
2023-03-06T05:37:27.021Z,13.45
2023-03-06T05:40:04.309Z,13.35
2023-03-06T05:42:31.257Z,12.75
2023-03-06T05:44:58.150Z,12.25
2023-03-06T05:47:33.853Z,12.90
2023-03-06T05:50:04.882Z,14.38
2023-03-06T05:52:53.940Z,14.10
2023-03-06T05:55:22.767Z,13.18
2023-03-06T05:57:57.730Z,12.55
2023-03-06T06:00:30.593Z,10.90
2023-03-06T06:03:01.517Z,12.50
2023-03-06T06:05:28.252Z,15.50
2023-03-06T06:07:59.501Z,13.65
2023-03-06T06:10:32.723Z,11.63
2023-03-06T06:13:03.931Z,13.38
2023-03-06T06:15:30.833Z,14.40
2023-03-06T06:18:02.608Z,14.05
2023-03-06T06:20:29.756Z,13.30
2023-03-06T06:22:57.033Z,13.00
2023-03-06T06:25:23.690Z,14.05
2023-03-06T06:27:50.256Z,12.60
2023-03-06T06:30:20.228Z,13.80
2023-03-06T06:32:47.513Z,13.20
2023-03-06T06:35:20.802Z,15.05
2023-03-06T06:37:47.428Z,15.32
2023-03-06T06:40:14.434Z,14.02
2023-03-06T06:42:42.209Z,14.88
2023-03-06T06:45:11.002Z,14.95
2023-03-06T06:47:41.301Z,14.75
2023-03-06T06:50:13.744Z,14.48
2023-03-06T06:52:40.846Z,13.27
2023-03-06T06:55:10.261Z,11.98
2023-03-06T06:57:36.880Z,11.65
2023-03-06T07:00:05.256Z,12.65
2023-03-06T07:02:44.566Z,12.40
2023-03-06T07:05:29.160Z,11.75
2023-03-06T07:07:55.817Z,11.02
2023-03-06T07:10:22.715Z,10.55
2023-03-06T07:12:49.600Z,10.13
2023-03-06T07:15:18.131Z,9.27
2023-03-06T07:17:44.827Z,10.13
2023-03-06T07:20:12.789Z,14.43
2023-03-06T07:22:50.333Z,12.52
2023-03-06T07:25:17.849Z,17.60
2023-03-06T07:27:48.855Z,17.45
2023-03-06T07:30:22.966Z,15.40
2023-03-06T07:32:58.778Z,13.48
2023-03-06T07:35:26.751Z,12.32
2023-03-06T07:37:55.802Z,11.40
2023-03-06T07:40:26.516Z,12.85
2023-03-06T07:43:09.155Z,11.52
2023-03-06T07:45:40.661Z,11.45
2023-03-06T07:48:12.472Z,10.93
2023-03-06T07:50:39.224Z,9.70
2023-03-06T07:53:05.977Z,9.38
2023-03-06T07:55:32.912Z,6.85
2023-03-06T07:57:59.715Z,8.40
2023-03-06T08:00:26.708Z,8.93
2023-03-06T08:02:53.905Z,7.10
2023-03-06T08:05:23.667Z,7.97
2023-03-06T08:07:50.428Z,7.50
2023-03-06T08:10:17.690Z,8.27
2023-03-06T08:12:56.481Z,6.30
2023-03-06T08:15:24.751Z,6.85
2023-03-06T08:17:59.995Z,7.10
2023-03-06T08:20:29.421Z,7.10
2023-03-06T08:22:59.277Z,7.18
2023-03-06T08:25:39.368Z,7.15
2023-03-06T08:28:06.685Z,4.72
2023-03-06T08:30:37.056Z,5.60
2023-03-06T08:33:03.823Z,3.33
2023-03-06T08:35:30.518Z,3.45
2023-03-06T08:37:57.242Z,2.30
2023-03-06T08:40:37.953Z,3.35
2023-03-06T08:43:05.202Z,3.63
2023-03-06T08:45:34.012Z,3.10
2023-03-06T08:48:02.418Z,3.13
2023-03-06T08:50:29.321Z,2.50
2023-03-06T08:52:56.024Z,2.75
2023-03-06T08:55:24.398Z,3.00
2023-03-06T08:58:05.426Z,1.90
2023-03-06T09:00:37.228Z,2.22
2023-03-06T09:03:11.006Z,2.80
2023-03-06T09:05:48.522Z,2.42
2023-03-06T09:08:16.741Z,2.58
2023-03-06T09:10:51.841Z,2.10
2023-03-06T09:13:22.756Z,2.40
2023-03-06T09:15:52.440Z,1.85
2023-03-06T09:18:19.488Z,1.92
2023-03-06T09:20:46.040Z,1.55
2023-03-06T09:23:15.835Z,2.00
2023-03-06T09:25:42.376Z,1.75
2023-03-06T09:28:12.422Z,2.40
2023-03-06T09:30:41.217Z,1.77
2023-03-06T09:33:17.553Z,1.35
2023-03-06T09:35:54.859Z,1.88
2023-03-06T09:38:24.139Z,1.75
2023-03-06T09:41:35.412Z,1.52
2023-03-06T09:44:14.578Z,1.85
2023-03-06T09:46:56.362Z,1.70
2023-03-06T09:49:48.732Z,1.85
2023-03-06T09:52:45.620Z,1.48
2023-03-06T09:55:27.223Z,1.40
2023-03-06T09:58:16.812Z,1.55
2023-03-06T10:01:17.744Z,1.63
2023-03-06T10:04:06.020Z,1.83
2023-03-06T10:06:56.505Z,1.92
2023-03-06T10:09:46.432Z,1.92
2023-03-06T10:12:25.190Z,1.98
2023-03-06T10:15:21.058Z,1.60
2023-03-06T10:17:48.610Z,1.70
2023-03-06T10:20:15.619Z,1.40
2023-03-06T10:23:06.971Z,1.55
2023-03-06T10:26:02.292Z,1.50
2023-03-06T10:28:57.498Z,1.17
2023-03-06T10:31:40.357Z,1.35
2023-03-06T10:34:31.839Z,1.65
2023-03-06T10:37:02.441Z,1.75
2023-03-06T10:39:32.713Z,1.10
2023-03-06T10:41:59.466Z,1.05
2023-03-06T10:44:28.979Z,1.27
2023-03-06T10:47:00.598Z,1.75
2023-03-06T10:49:31.876Z,1.35
2023-03-06T10:52:32.136Z,1.42
2023-03-06T10:55:37.306Z,1.25
2023-03-06T10:58:32.140Z,1.40
2023-03-06T11:01:16.333Z,1.55
2023-03-06T11:03:43.135Z,1.55
2023-03-06T11:06:29.958Z,1.10
2023-03-06T11:09:24.693Z,1.50
2023-03-06T11:11:58.151Z,1.42
2023-03-06T11:14:29.386Z,1.27
2023-03-06T11:17:03.121Z,1.25
2023-03-06T11:19:48.789Z,1.25
2023-03-06T11:22:19.010Z,1.25
2023-03-06T11:24:50.784Z,1.05
2023-03-06T11:27:40.938Z,1.23
2023-03-06T11:30:17.711Z,1.08
2023-03-06T11:33:10.952Z,1.02
2023-03-06T11:36:15.408Z,1.05
2023-03-06T11:38:44.263Z,1.60
2023-03-06T11:41:29.974Z,1.00
2023-03-06T11:44:07.919Z,1.08
2023-03-06T11:47:05.851Z,1.25
2023-03-06T11:49:42.221Z,1.15
2023-03-06T11:52:41.447Z,1.55
2023-03-06T11:55:20.746Z,1.38
2023-03-06T11:58:05.228Z,1.13
2023-03-06T12:00:42.427Z,0.95
2023-03-06T12:03:30.507Z,1.70
2023-03-06T12:05:57.381Z,1.02
2023-03-06T12:09:18.845Z,1.08
2023-03-06T12:12:20.903Z,1.30
2023-03-06T12:15:09.061Z,1.08
2023-03-06T12:21:05.668Z,0.93
2023-03-06T12:29:22.329Z,1.05
2023-03-06T12:32:21.290Z,1.13
2023-03-06T12:35:31.557Z,1.20
2023-03-06T12:38:29.746Z,0.90
2023-03-06T12:41:36.859Z,1.35
2023-03-06T12:44:51.340Z,1.10
2023-03-06T12:47:26.250Z,1.00
2023-03-06T12:50:26.607Z,1.17
2023-03-06T12:52:55.943Z,1.20
2023-03-06T12:55:32.627Z,0.70
2023-03-06T12:58:37.030Z,1.02
2023-03-06T13:01:14.670Z,1.35
2023-03-06T13:04:18.750Z,1.05
2023-03-06T13:07:08.347Z,0.70
2023-03-06T13:09:54.779Z,1.17
2023-03-06T13:12:51.200Z,0.82
2023-03-06T13:15:43.437Z,0.80
2023-03-06T13:21:08.422Z,0.90
2023-03-06T13:23:54.211Z,0.95
2023-03-06T13:26:30.275Z,0.90
2023-03-06T13:29:00.783Z,1.17
2023-03-06T13:31:33.685Z,0.90
2023-03-06T13:34:20.433Z,2.17
2023-03-06T13:36:54.874Z,1.38
2023-03-06T13:39:27.028Z,1.20
2023-03-06T13:41:56.784Z,1.90
2023-03-06T13:44:30.848Z,1.25
2023-03-06T13:47:25.549Z,1.58
2023-03-06T13:50:01.648Z,2.47
2023-03-06T13:53:10.700Z,1.33
2023-03-06T13:55:47.286Z,1.58
2023-03-06T13:58:37.649Z,1.52
2023-03-06T14:01:23.236Z,1.77
2023-03-06T14:04:27.483Z,1.60
2023-03-06T14:07:29.505Z,1.40
2023-03-06T14:10:14.494Z,2.00
2023-03-06T14:13:11.187Z,1.23
2023-03-06T14:15:58.223Z,1.80
2023-03-06T14:18:47.378Z,1.75
2023-03-06T14:21:16.076Z,1.40
2023-03-06T14:23:45.992Z,1.70
2023-03-06T14:26:23.917Z,1.50
2023-03-06T14:31:50.508Z,1.60
2023-03-06T14:34:29.225Z,1.48
2023-03-06T14:37:03.971Z,1.52
2023-03-06T14:39:38.310Z,1.77
2023-03-06T14:42:33.933Z,1.73
2023-03-06T14:45:18.782Z,2.13
2023-03-06T14:47:54.472Z,1.50
2023-03-06T14:50:33.648Z,1.33
2023-03-06T14:53:06.338Z,1.95
2023-03-06T14:55:35.561Z,1.77
2023-03-06T14:58:12.196Z,1.85
2023-03-06T15:00:47.016Z,1.38
2023-03-06T15:03:27.281Z,1.40
2023-03-06T15:06:00.879Z,1.70
2023-03-06T15:08:31.972Z,1.52
2023-03-06T15:11:15.311Z,2.00
2023-03-06T15:13:41.988Z,2.50
2023-03-06T15:16:30.635Z,1.95
2023-03-06T15:19:03.027Z,1.75
2023-03-06T15:21:39.393Z,1.80
2023-03-06T15:24:34.775Z,1.65
2023-03-06T15:27:05.164Z,1.50
2023-03-06T15:29:51.633Z,1.77
2023-03-06T15:32:34.485Z,1.45
2023-03-06T15:35:35.764Z,1.55
2023-03-06T15:38:25.490Z,1.42
2023-03-06T15:41:00.379Z,1.40
2023-03-06T15:43:39.662Z,1.38
2023-03-06T15:46:07.672Z,1.48
2023-03-06T15:48:35.623Z,1.50
2023-03-06T15:51:03.650Z,0.90
2023-03-06T15:53:30.878Z,1.20
2023-03-06T15:56:07.100Z,1.40
2023-03-06T15:58:34.871Z,1.38
2023-03-06T16:01:01.829Z,1.83
2023-03-06T16:03:31.677Z,1.40
2023-03-06T16:06:02.337Z,1.20
2023-03-06T16:08:31.735Z,1.42
2023-03-06T16:10:58.292Z,1.55
2023-03-06T16:13:32.623Z,1.25
2023-03-06T16:16:02.287Z,1.52
2023-03-06T16:18:29.087Z,1.67
2023-03-06T16:21:01.940Z,1.42
2023-03-06T16:23:28.607Z,1.60
2023-03-06T16:26:04.443Z,1.80
2023-03-06T16:28:33.341Z,1.60
2023-03-06T16:31:00.085Z,1.73
2023-03-06T16:33:26.917Z,1.60
2023-03-06T16:35:53.462Z,1.40
2023-03-06T16:38:20.724Z,2.00
2023-03-06T16:40:48.277Z,1.38
2023-03-06T16:43:16.936Z,1.60
2023-03-06T16:45:50.790Z,1.60
2023-03-06T16:48:20.158Z,1.55
2023-03-06T16:50:46.966Z,1.35
2023-03-06T16:53:17.395Z,1.45
2023-03-06T16:55:44.229Z,1.35
2023-03-06T16:58:13.397Z,1.33
2023-03-06T17:03:21.760Z,1.10
2023-03-06T17:05:48.444Z,0.95
2023-03-06T17:08:15.099Z,1.15
2023-03-06T17:10:42.338Z,1.30
2023-03-06T17:13:15.912Z,1.17
2023-03-06T17:16:03.417Z,1.20
2023-03-06T17:18:33.298Z,1.23
2023-03-06T17:21:00.331Z,0.98
2023-03-06T17:23:29.633Z,1.40
2023-03-06T17:26:13.382Z,1.02
2023-03-06T17:28:43.242Z,1.20
2023-03-06T17:31:19.456Z,1.13
2023-03-06T17:33:52.318Z,1.58
2023-03-06T17:36:28.022Z,1.20
2023-03-06T17:38:58.152Z,1.40
2023-03-06T17:41:26.713Z,1.38
2023-03-06T17:43:57.320Z,1.27
2023-03-06T17:46:30.580Z,1.30
2023-03-06T17:49:01.051Z,1.98
2023-03-06T17:51:28.460Z,1.80
2023-03-06T17:53:55.903Z,1.80
2023-03-06T17:56:22.739Z,1.90
2023-03-06T17:58:55.429Z,2.35
2023-03-06T18:01:39.356Z,2.20
2023-03-06T18:04:06.774Z,1.83
2023-03-06T18:06:35.046Z,2.42
2023-03-06T18:09:01.819Z,1.85
2023-03-06T18:11:32.811Z,2.05
2023-03-06T18:14:05.907Z,1.80
2023-03-06T18:16:33.884Z,1.98
2023-03-06T18:19:05.243Z,1.98
2023-03-06T18:21:39.205Z,2.20
2023-03-06T18:24:09.354Z,1.80
2023-03-06T18:26:42.330Z,2.20
2023-03-06T18:29:14.181Z,2.22
2023-03-06T18:31:50.081Z,2.00
2023-03-06T18:34:21.388Z,2.53
2023-03-06T18:36:51.817Z,2.13
2023-03-06T18:39:26.184Z,2.50
2023-03-06T18:41:56.956Z,2.40
2023-03-06T18:44:23.550Z,1.90
2023-03-06T18:46:55.142Z,2.00
2023-03-06T18:49:22.335Z,1.70
2023-03-06T18:52:06.187Z,2.13
2023-03-06T18:54:35.842Z,2.10
2023-03-06T18:57:06.330Z,2.33
2023-03-06T18:59:44.586Z,2.08
2023-03-06T19:02:13.546Z,1.90
2023-03-06T19:04:40.286Z,2.20
2023-03-06T19:07:07.736Z,2.40
2023-03-06T19:09:37.188Z,1.95
2023-03-06T19:12:10.474Z,2.00
2023-03-06T19:14:37.937Z,2.20
2023-03-06T19:17:13.776Z,2.28
2023-03-06T19:19:40.872Z,2.10
2023-03-06T19:22:10.446Z,2.05
2023-03-06T19:24:40.601Z,2.35
2023-03-06T19:27:11.734Z,2.47
2023-03-06T19:29:58.635Z,2.53
2023-03-06T19:33:03.631Z,2.60
2023-03-06T19:35:36.071Z,2.58
2023-03-06T19:38:09.491Z,2.60
2023-03-06T19:40:38.540Z,3.00
2023-03-06T19:43:11.411Z,2.40
2023-03-06T19:45:44.042Z,2.85
2023-03-06T19:48:23.623Z,2.55
2023-03-06T19:50:53.285Z,3.15
2023-03-06T19:53:20.668Z,3.00
2023-03-06T19:55:59.478Z,2.55
2023-03-06T19:58:27.081Z,3.33
2023-03-06T20:00:53.822Z,2.90
2023-03-06T20:03:26.952Z,3.50
2023-03-06T20:05:57.077Z,3.72
2023-03-06T20:08:39.048Z,2.88
2023-03-06T20:11:26.830Z,3.45
2023-03-06T20:13:56.748Z,2.97
2023-03-06T20:16:30.644Z,3.53
2023-03-06T20:19:02.682Z,3.88
2023-03-06T20:21:44.410Z,3.05
2023-03-06T20:24:22.842Z,4.05
2023-03-06T20:26:51.229Z,4.05
2023-03-06T20:29:28.502Z,4.43
2023-03-06T20:32:02.736Z,4.35
2023-03-06T20:34:29.731Z,3.60
2023-03-06T20:36:58.207Z,4.30
2023-03-06T20:39:25.438Z,3.85
2023-03-06T20:42:05.268Z,4.20
2023-03-06T20:44:44.811Z,4.03
2023-03-06T20:47:30.288Z,3.72
2023-03-06T20:50:12.617Z,4.22
2023-03-06T20:52:44.671Z,4.32
2023-03-06T20:55:21.773Z,3.85
2023-03-06T20:58:02.199Z,3.92
2023-03-06T21:00:31.348Z,4.22
2023-03-06T21:03:00.178Z,4.60
2023-03-06T21:05:36.127Z,4.10
2023-03-06T21:11:34.512Z,3.60
2023-03-06T21:14:14.551Z,4.47
2023-03-06T21:19:32.130Z,3.80
2023-03-06T21:22:03.336Z,4.25
2023-03-06T21:24:33.278Z,4.55
2023-03-06T21:27:20.031Z,4.38
2023-03-06T21:29:56.753Z,3.53
2023-03-06T21:32:28.971Z,4.03
2023-03-06T21:35:02.178Z,3.78
2023-03-06T21:37:39.647Z,4.18
2023-03-06T21:40:24.043Z,4.13
2023-03-06T21:42:57.243Z,4.43
2023-03-06T21:45:31.053Z,4.20
2023-03-06T21:48:17.683Z,4.40
2023-03-06T21:53:25.416Z,3.70
2023-03-06T21:55:57.315Z,4.35
2023-03-06T22:01:09.691Z,4.22
2023-03-06T22:04:02.402Z,4.53
2023-03-06T22:06:42.977Z,4.63
2023-03-06T22:09:10.888Z,4.00
2023-03-06T22:11:48.301Z,4.78
2023-03-06T22:14:18.091Z,4.13
2023-03-06T22:16:50.443Z,4.28
2023-03-06T22:19:45.413Z,4.20
2023-03-06T22:22:26.989Z,4.15
2023-03-06T22:25:10.802Z,4.53
2023-03-06T22:28:04.417Z,4.28
2023-03-06T22:30:31.739Z,4.32
2023-03-06T22:33:01.989Z,4.43
2023-03-06T22:35:30.200Z,3.97
2023-03-06T22:38:24.415Z,4.63
2023-03-06T22:41:04.522Z,4.75
2023-03-06T22:43:40.863Z,4.65
2023-03-06T22:46:15.801Z,4.82
2023-03-06T22:48:51.763Z,4.82
2023-03-06T22:51:20.557Z,4.53
2023-03-06T22:53:48.059Z,4.68
2023-03-06T22:56:22.064Z,4.63
2023-03-06T22:59:01.326Z,4.13
2023-03-06T23:01:30.664Z,5.30
2023-03-06T23:04:11.267Z,5.28
2023-03-06T23:06:55.115Z,4.80
2023-03-06T23:09:28.427Z,5.03
2023-03-06T23:11:55.070Z,5.22
2023-03-06T23:14:21.911Z,4.68
2023-03-06T23:16:48.565Z,4.90
2023-03-06T23:19:34.486Z,4.38
2023-03-06T23:22:12.916Z,4.97
2023-03-06T23:24:42.720Z,5.03
2023-03-06T23:27:24.702Z,4.05
2023-03-06T23:30:02.506Z,4.50
2023-03-06T23:32:38.221Z,4.10
2023-03-06T23:35:05.217Z,4.85
2023-03-06T23:37:31.964Z,4.25
2023-03-06T23:40:01.703Z,4.40
2023-03-06T23:42:29.200Z,4.25
2023-03-06T23:45:04.507Z,4.10
2023-03-06T23:47:34.659Z,5.00
2023-03-06T23:50:04.606Z,4.68
2023-03-06T23:52:34.007Z,4.50
2023-03-06T23:55:00.716Z,4.35
2023-03-06T23:57:29.461Z,4.93
2023-03-06T23:59:56.989Z,4.85
